sensor_id;sensor_type;location;lat;lon;timestamp;temperature;humidity
21734;DHT22;11029;47.820;10.534;2023-06-19T00:02:08;18.50;59.90
21734;DHT22;11029;47.820;10.534;2023-06-19T00:04:36;18.50;59.90
21734;DHT22;11029;47.820;10.534;2023-06-19T00:07:03;18.40;59.80
21734;DHT22;11029;47.820;10.534;2023-06-19T00:09:30;18.30;59.80
21734;DHT22;11029;47.820;10.534;2023-06-19T00:11:57;18.30;59.90
21734;DHT22;11029;47.820;10.534;2023-06-19T00:14:25;18.30;60.00
21734;DHT22;11029;47.820;10.534;2023-06-19T00:16:52;18.30;60.30
21734;DHT22;11029;47.820;10.534;2023-06-19T00:19:19;18.30;60.20
21734;DHT22;11029;47.820;10.534;2023-06-19T00:21:46;18.30;60.50
21734;DHT22;11029;47.820;10.534;2023-06-19T00:24:13;18.30;60.80
21734;DHT22;11029;47.820;10.534;2023-06-19T00:26:39;18.30;61.00
21734;DHT22;11029;47.820;10.534;2023-06-19T00:29:06;18.20;61.10
21734;DHT22;11029;47.820;10.534;2023-06-19T00:31:33;18.20;61.00
21734;DHT22;11029;47.820;10.534;2023-06-19T00:34:03;18.20;61.10
21734;DHT22;11029;47.820;10.534;2023-06-19T00:36:30;18.20;61.00
21734;DHT22;11029;47.820;10.534;2023-06-19T00:38:57;18.20;61.30
21734;DHT22;11029;47.820;10.534;2023-06-19T00:41:25;18.20;61.10
21734;DHT22;11029;47.820;10.534;2023-06-19T00:43:54;18.30;61.20
21734;DHT22;11029;47.820;10.534;2023-06-19T00:46:21;18.30;61.20
21734;DHT22;11029;47.820;10.534;2023-06-19T00:48:48;18.30;61.10
21734;DHT22;11029;47.820;10.534;2023-06-19T00:51:17;18.30;61.00
21734;DHT22;11029;47.820;10.534;2023-06-19T00:53:44;18.30;61.00
21734;DHT22;11029;47.820;10.534;2023-06-19T00:56:11;18.30;60.70
21734;DHT22;11029;47.820;10.534;2023-06-19T00:58:38;18.40;60.50
21734;DHT22;11029;47.820;10.534;2023-06-19T01:01:05;18.40;60.40
21734;DHT22;11029;47.820;10.534;2023-06-19T01:03:36;18.40;60.40
21734;DHT22;11029;47.820;10.534;2023-06-19T01:06:08;18.40;60.40
21734;DHT22;11029;47.820;10.534;2023-06-19T01:11:16;18.30;60.80
21734;DHT22;11029;47.820;10.534;2023-06-19T01:13:58;18.40;61.10
21734;DHT22;11029;47.820;10.534;2023-06-19T01:16:27;18.40;60.90
21734;DHT22;11029;47.820;10.534;2023-06-19T01:18:54;18.40;60.80
21734;DHT22;11029;47.820;10.534;2023-06-19T01:21:22;18.40;60.70
21734;DHT22;11029;47.820;10.534;2023-06-19T01:23:48;18.50;60.50
21734;DHT22;11029;47.820;10.534;2023-06-19T01:26:16;18.50;61.00
21734;DHT22;11029;47.820;10.534;2023-06-19T01:28:44;18.50;61.30
21734;DHT22;11029;47.820;10.534;2023-06-19T01:31:23;18.40;61.80
21734;DHT22;11029;47.820;10.534;2023-06-19T01:33:52;18.30;61.90
21734;DHT22;11029;47.820;10.534;2023-06-19T01:36:20;18.30;61.90
21734;DHT22;11029;47.820;10.534;2023-06-19T01:38:48;18.20;62.20
21734;DHT22;11029;47.820;10.534;2023-06-19T01:41:16;18.10;63.20
21734;DHT22;11029;47.820;10.534;2023-06-19T01:43:45;18.10;63.50
21734;DHT22;11029;47.820;10.534;2023-06-19T01:46:12;18.00;63.60
21734;DHT22;11029;47.820;10.534;2023-06-19T01:48:39;17.70;64.40
21734;DHT22;11029;47.820;10.534;2023-06-19T01:51:06;17.70;64.60
21734;DHT22;11029;47.820;10.534;2023-06-19T01:53:33;17.80;64.30
21734;DHT22;11029;47.820;10.534;2023-06-19T01:56:01;17.90;63.30
21734;DHT22;11029;47.820;10.534;2023-06-19T01:58:29;18.00;63.00
21734;DHT22;11029;47.820;10.534;2023-06-19T02:00:56;18.10;62.80
21734;DHT22;11029;47.820;10.534;2023-06-19T02:03:22;18.10;62.40
21734;DHT22;11029;47.820;10.534;2023-06-19T02:05:49;18.20;62.30
21734;DHT22;11029;47.820;10.534;2023-06-19T02:08:16;18.20;62.10
21734;DHT22;11029;47.820;10.534;2023-06-19T02:10:43;18.20;62.30
21734;DHT22;11029;47.820;10.534;2023-06-19T02:13:09;18.10;62.50
21734;DHT22;11029;47.820;10.534;2023-06-19T02:15:36;18.10;62.40
21734;DHT22;11029;47.820;10.534;2023-06-19T02:18:03;17.90;62.90
21734;DHT22;11029;47.820;10.534;2023-06-19T02:20:30;17.90;62.80
21734;DHT22;11029;47.820;10.534;2023-06-19T02:22:57;17.90;62.70
21734;DHT22;11029;47.820;10.534;2023-06-19T02:25:24;17.90;62.90
21734;DHT22;11029;47.820;10.534;2023-06-19T02:27:51;17.90;63.00
21734;DHT22;11029;47.820;10.534;2023-06-19T02:30:18;17.90;63.10
21734;DHT22;11029;47.820;10.534;2023-06-19T02:32:45;17.90;63.10
21734;DHT22;11029;47.820;10.534;2023-06-19T02:35:12;18.00;62.70
21734;DHT22;11029;47.820;10.534;2023-06-19T02:37:38;18.00;62.50
21734;DHT22;11029;47.820;10.534;2023-06-19T02:40:07;18.00;62.30
21734;DHT22;11029;47.820;10.534;2023-06-19T02:42:35;18.00;61.90
21734;DHT22;11029;47.820;10.534;2023-06-19T02:45:02;18.10;61.90
21734;DHT22;11029;47.820;10.534;2023-06-19T02:47:30;18.10;61.70
21734;DHT22;11029;47.820;10.534;2023-06-19T02:50:01;18.20;61.60
21734;DHT22;11029;47.820;10.534;2023-06-19T02:52:28;18.30;61.60
21734;DHT22;11029;47.820;10.534;2023-06-19T02:54:55;18.30;61.20
21734;DHT22;11029;47.820;10.534;2023-06-19T02:57:21;18.30;61.10
21734;DHT22;11029;47.820;10.534;2023-06-19T02:59:48;18.30;61.00
21734;DHT22;11029;47.820;10.534;2023-06-19T03:02:15;18.30;60.90
21734;DHT22;11029;47.820;10.534;2023-06-19T03:04:43;18.30;60.80
21734;DHT22;11029;47.820;10.534;2023-06-19T03:07:10;18.30;61.00
21734;DHT22;11029;47.820;10.534;2023-06-19T03:09:40;18.30;61.70
21734;DHT22;11029;47.820;10.534;2023-06-19T03:12:08;18.20;62.20
21734;DHT22;11029;47.820;10.534;2023-06-19T03:14:36;18.20;62.40
21734;DHT22;11029;47.820;10.534;2023-06-19T03:17:03;18.20;62.30
21734;DHT22;11029;47.820;10.534;2023-06-19T03:19:31;18.20;62.30
21734;DHT22;11029;47.820;10.534;2023-06-19T03:21:58;18.20;62.00
21734;DHT22;11029;47.820;10.534;2023-06-19T03:24:25;18.20;61.90
21734;DHT22;11029;47.820;10.534;2023-06-19T03:26:59;18.40;61.70
21734;DHT22;11029;47.820;10.534;2023-06-19T03:29:26;18.40;61.70
21734;DHT22;11029;47.820;10.534;2023-06-19T03:32:04;18.40;62.00
21734;DHT22;11029;47.820;10.534;2023-06-19T03:34:32;18.40;62.00
21734;DHT22;11029;47.820;10.534;2023-06-19T03:37:02;18.40;61.90
21734;DHT22;11029;47.820;10.534;2023-06-19T03:39:30;18.40;62.00
21734;DHT22;11029;47.820;10.534;2023-06-19T03:42:04;18.30;62.20
21734;DHT22;11029;47.820;10.534;2023-06-19T03:44:31;18.40;61.50
21734;DHT22;11029;47.820;10.534;2023-06-19T03:46:58;18.40;61.10
21734;DHT22;11029;47.820;10.534;2023-06-19T03:49:25;18.50;59.40
21734;DHT22;11029;47.820;10.534;2023-06-19T03:51:53;18.50;58.90
21734;DHT22;11029;47.820;10.534;2023-06-19T03:54:21;18.60;58.20
21734;DHT22;11029;47.820;10.534;2023-06-19T03:56:48;18.60;58.40
21734;DHT22;11029;47.820;10.534;2023-06-19T03:59:16;18.60;58.00
21734;DHT22;11029;47.820;10.534;2023-06-19T04:01:43;18.70;57.50
21734;DHT22;11029;47.820;10.534;2023-06-19T04:04:10;18.80;56.60
21734;DHT22;11029;47.820;10.534;2023-06-19T04:06:37;19.00;56.30
21734;DHT22;11029;47.820;10.534;2023-06-19T04:09:05;19.20;55.70
21734;DHT22;11029;47.820;10.534;2023-06-19T04:11:32;19.30;55.10
21734;DHT22;11029;47.820;10.534;2023-06-19T04:14:00;19.50;54.90
21734;DHT22;11029;47.820;10.534;2023-06-19T04:16:28;19.70;54.80
21734;DHT22;11029;47.820;10.534;2023-06-19T04:18:55;19.70;54.80
21734;DHT22;11029;47.820;10.534;2023-06-19T04:21:22;19.80;54.10
21734;DHT22;11029;47.820;10.534;2023-06-19T04:23:49;19.90;54.70
21734;DHT22;11029;47.820;10.534;2023-06-19T04:26:16;19.90;54.60
21734;DHT22;11029;47.820;10.534;2023-06-19T04:28:42;19.90;54.40
21734;DHT22;11029;47.820;10.534;2023-06-19T04:31:09;19.90;54.70
21734;DHT22;11029;47.820;10.534;2023-06-19T04:33:36;19.80;54.60
21734;DHT22;11029;47.820;10.534;2023-06-19T04:36:03;19.90;54.30
21734;DHT22;11029;47.820;10.534;2023-06-19T04:38:30;19.80;54.40
21734;DHT22;11029;47.820;10.534;2023-06-19T04:40:56;19.80;55.00
21734;DHT22;11029;47.820;10.534;2023-06-19T04:43:24;19.80;55.30
21734;DHT22;11029;47.820;10.534;2023-06-19T04:45:51;19.70;55.70
21734;DHT22;11029;47.820;10.534;2023-06-19T04:48:18;19.70;55.90
21734;DHT22;11029;47.820;10.534;2023-06-19T04:50:45;19.60;56.30
21734;DHT22;11029;47.820;10.534;2023-06-19T04:53:11;19.60;56.60
21734;DHT22;11029;47.820;10.534;2023-06-19T04:55:38;19.60;56.60
21734;DHT22;11029;47.820;10.534;2023-06-19T04:58:05;19.60;57.00
21734;DHT22;11029;47.820;10.534;2023-06-19T05:00:32;19.60;56.90
21734;DHT22;11029;47.820;10.534;2023-06-19T05:02:58;19.50;57.20
21734;DHT22;11029;47.820;10.534;2023-06-19T05:05:28;19.60;57.40
21734;DHT22;11029;47.820;10.534;2023-06-19T05:07:55;19.60;57.20
21734;DHT22;11029;47.820;10.534;2023-06-19T05:10:21;19.60;57.60
21734;DHT22;11029;47.820;10.534;2023-06-19T05:12:49;19.60;57.90
21734;DHT22;11029;47.820;10.534;2023-06-19T05:15:15;19.60;58.10
21734;DHT22;11029;47.820;10.534;2023-06-19T05:17:42;19.70;58.00
21734;DHT22;11029;47.820;10.534;2023-06-19T05:20:13;19.70;57.60
21734;DHT22;11029;47.820;10.534;2023-06-19T05:22:39;19.70;57.80
21734;DHT22;11029;47.820;10.534;2023-06-19T05:25:07;19.90;57.80
21734;DHT22;11029;47.820;10.534;2023-06-19T05:27:34;20.10;57.40
21734;DHT22;11029;47.820;10.534;2023-06-19T05:30:01;20.30;56.70
21734;DHT22;11029;47.820;10.534;2023-06-19T05:32:27;20.50;56.60
21734;DHT22;11029;47.820;10.534;2023-06-19T05:34:54;20.70;56.50
21734;DHT22;11029;47.820;10.534;2023-06-19T05:37:21;20.80;55.90
21734;DHT22;11029;47.820;10.534;2023-06-19T05:39:49;21.00;55.40
21734;DHT22;11029;47.820;10.534;2023-06-19T05:42:16;21.10;54.90
21734;DHT22;11029;47.820;10.534;2023-06-19T05:44:43;20.80;55.50
21734;DHT22;11029;47.820;10.534;2023-06-19T05:47:10;20.80;55.90
21734;DHT22;11029;47.820;10.534;2023-06-19T05:49:38;20.80;56.00
21734;DHT22;11029;47.820;10.534;2023-06-19T05:52:07;20.80;56.20
21734;DHT22;11029;47.820;10.534;2023-06-19T05:54:34;20.90;56.10
21734;DHT22;11029;47.820;10.534;2023-06-19T05:57:01;20.90;55.60
21734;DHT22;11029;47.820;10.534;2023-06-19T05:59:28;20.90;56.10
21734;DHT22;11029;47.820;10.534;2023-06-19T06:01:55;21.00;56.30
21734;DHT22;11029;47.820;10.534;2023-06-19T06:04:22;21.00;55.10
21734;DHT22;11029;47.820;10.534;2023-06-19T06:06:49;20.90;55.40
21734;DHT22;11029;47.820;10.534;2023-06-19T06:09:16;20.80;55.40
21734;DHT22;11029;47.820;10.534;2023-06-19T06:11:43;20.70;56.50
21734;DHT22;11029;47.820;10.534;2023-06-19T06:14:09;20.70;56.30
21734;DHT22;11029;47.820;10.534;2023-06-19T06:16:39;20.70;56.10
21734;DHT22;11029;47.820;10.534;2023-06-19T06:19:06;20.70;56.60
21734;DHT22;11029;47.820;10.534;2023-06-19T06:21:33;20.70;56.90
21734;DHT22;11029;47.820;10.534;2023-06-19T06:24:01;20.70;56.90
21734;DHT22;11029;47.820;10.534;2023-06-19T06:26:28;20.70;56.60
21734;DHT22;11029;47.820;10.534;2023-06-19T06:28:55;20.50;56.80
21734;DHT22;11029;47.820;10.534;2023-06-19T06:31:22;20.40;57.30
21734;DHT22;11029;47.820;10.534;2023-06-19T06:33:49;20.30;57.80
21734;DHT22;11029;47.820;10.534;2023-06-19T06:36:16;20.30;57.50
21734;DHT22;11029;47.820;10.534;2023-06-19T06:39:01;20.20;58.10
21734;DHT22;11029;47.820;10.534;2023-06-19T06:41:28;20.20;58.00
21734;DHT22;11029;47.820;10.534;2023-06-19T06:43:54;20.20;58.60
21734;DHT22;11029;47.820;10.534;2023-06-19T06:46:22;20.20;58.70
21734;DHT22;11029;47.820;10.534;2023-06-19T06:48:49;20.20;58.90
21734;DHT22;11029;47.820;10.534;2023-06-19T06:51:16;20.20;58.80
21734;DHT22;11029;47.820;10.534;2023-06-19T06:53:43;20.30;58.00
21734;DHT22;11029;47.820;10.534;2023-06-19T06:56:10;20.30;58.40
21734;DHT22;11029;47.820;10.534;2023-06-19T06:58:37;20.20;58.80
21734;DHT22;11029;47.820;10.534;2023-06-19T07:01:05;20.40;58.50
21734;DHT22;11029;47.820;10.534;2023-06-19T07:03:31;20.60;57.40
21734;DHT22;11029;47.820;10.534;2023-06-19T07:05:59;20.80;58.20
21734;DHT22;11029;47.820;10.534;2023-06-19T07:08:26;21.10;57.20
21734;DHT22;11029;47.820;10.534;2023-06-19T07:10:52;21.10;55.70
21734;DHT22;11029;47.820;10.534;2023-06-19T07:13:19;21.10;56.50
21734;DHT22;11029;47.820;10.534;2023-06-19T07:15:46;21.10;56.30
21734;DHT22;11029;47.820;10.534;2023-06-19T07:18:13;21.20;56.30
21734;DHT22;11029;47.820;10.534;2023-06-19T07:20:40;21.40;56.00
21734;DHT22;11029;47.820;10.534;2023-06-19T07:23:07;21.50;55.30
21734;DHT22;11029;47.820;10.534;2023-06-19T07:25:34;21.70;55.80
21734;DHT22;11029;47.820;10.534;2023-06-19T07:28:00;21.80;55.40
21734;DHT22;11029;47.820;10.534;2023-06-19T07:30:27;21.60;55.20
21734;DHT22;11029;47.820;10.534;2023-06-19T07:32:54;21.50;55.30
21734;DHT22;11029;47.820;10.534;2023-06-19T07:35:21;21.40;57.10
21734;DHT22;11029;47.820;10.534;2023-06-19T07:37:48;21.60;55.40
21734;DHT22;11029;47.820;10.534;2023-06-19T07:40:15;21.50;54.80
21734;DHT22;11029;47.820;10.534;2023-06-19T07:42:42;21.40;55.60
21734;DHT22;11029;47.820;10.534;2023-06-19T07:45:11;21.50;55.50
21734;DHT22;11029;47.820;10.534;2023-06-19T07:47:38;21.60;55.10
21734;DHT22;11029;47.820;10.534;2023-06-19T07:50:05;21.70;55.50
21734;DHT22;11029;47.820;10.534;2023-06-19T07:52:32;21.80;54.90
21734;DHT22;11029;47.820;10.534;2023-06-19T07:54:58;21.90;54.70
21734;DHT22;11029;47.820;10.534;2023-06-19T07:57:26;21.90;54.80
21734;DHT22;11029;47.820;10.534;2023-06-19T07:59:54;22.10;54.30
21734;DHT22;11029;47.820;10.534;2023-06-19T08:02:21;22.20;53.40
21734;DHT22;11029;47.820;10.534;2023-06-19T08:04:48;22.30;54.50
21734;DHT22;11029;47.820;10.534;2023-06-19T08:07:15;22.40;53.00
21734;DHT22;11029;47.820;10.534;2023-06-19T08:09:42;22.30;52.40
21734;DHT22;11029;47.820;10.534;2023-06-19T08:12:08;22.40;52.30
21734;DHT22;11029;47.820;10.534;2023-06-19T08:14:35;22.50;53.40
21734;DHT22;11029;47.820;10.534;2023-06-19T08:17:02;22.50;52.80
21734;DHT22;11029;47.820;10.534;2023-06-19T08:19:29;22.50;52.60
21734;DHT22;11029;47.820;10.534;2023-06-19T08:21:56;22.60;53.60
21734;DHT22;11029;47.820;10.534;2023-06-19T08:24:23;22.70;52.60
21734;DHT22;11029;47.820;10.534;2023-06-19T08:26:49;22.80;52.90
21734;DHT22;11029;47.820;10.534;2023-06-19T08:29:18;22.90;52.30
21734;DHT22;11029;47.820;10.534;2023-06-19T08:31:45;23.00;52.30
21734;DHT22;11029;47.820;10.534;2023-06-19T08:34:12;22.90;51.40
21734;DHT22;11029;47.820;10.534;2023-06-19T08:36:38;23.00;51.40
21734;DHT22;11029;47.820;10.534;2023-06-19T08:39:05;23.00;52.00
21734;DHT22;11029;47.820;10.534;2023-06-19T08:41:38;23.10;50.60
21734;DHT22;11029;47.820;10.534;2023-06-19T08:44:05;23.20;50.70
21734;DHT22;11029;47.820;10.534;2023-06-19T08:46:33;23.30;50.60
21734;DHT22;11029;47.820;10.534;2023-06-19T08:49:01;23.30;50.70
21734;DHT22;11029;47.820;10.534;2023-06-19T08:51:28;23.10;50.00
21734;DHT22;11029;47.820;10.534;2023-06-19T08:54:05;23.10;50.80
21734;DHT22;11029;47.820;10.534;2023-06-19T08:56:33;23.10;52.00
21734;DHT22;11029;47.820;10.534;2023-06-19T08:59:12;23.00;51.50
21734;DHT22;11029;47.820;10.534;2023-06-19T09:01:39;22.80;51.70
21734;DHT22;11029;47.820;10.534;2023-06-19T09:04:13;22.70;51.90
21734;DHT22;11029;47.820;10.534;2023-06-19T09:07:11;22.80;53.30
21734;DHT22;11029;47.820;10.534;2023-06-19T09:09:46;22.70;53.00
21734;DHT22;11029;47.820;10.534;2023-06-19T09:12:13;22.50;53.00
21734;DHT22;11029;47.820;10.534;2023-06-19T09:14:45;22.60;52.50
21734;DHT22;11029;47.820;10.534;2023-06-19T09:17:17;22.60;54.30
21734;DHT22;11029;47.820;10.534;2023-06-19T09:19:51;22.70;53.80
21734;DHT22;11029;47.820;10.534;2023-06-19T09:22:20;22.80;51.80
21734;DHT22;11029;47.820;10.534;2023-06-19T09:24:48;22.80;52.20
21734;DHT22;11029;47.820;10.534;2023-06-19T09:27:17;22.80;52.30
21734;DHT22;11029;47.820;10.534;2023-06-19T09:29:47;22.80;52.40
21734;DHT22;11029;47.820;10.534;2023-06-19T09:32:22;22.80;52.30
21734;DHT22;11029;47.820;10.534;2023-06-19T09:34:53;22.90;51.30
21734;DHT22;11029;47.820;10.534;2023-06-19T09:37:24;23.00;51.50
21734;DHT22;11029;47.820;10.534;2023-06-19T09:40:05;23.10;51.50
21734;DHT22;11029;47.820;10.534;2023-06-19T09:42:42;23.10;51.60
21734;DHT22;11029;47.820;10.534;2023-06-19T09:45:30;23.10;51.90
21734;DHT22;11029;47.820;10.534;2023-06-19T09:47:57;23.40;51.50
21734;DHT22;11029;47.820;10.534;2023-06-19T09:50:41;23.60;51.20
21734;DHT22;11029;47.820;10.534;2023-06-19T09:53:09;23.70;51.00
21734;DHT22;11029;47.820;10.534;2023-06-19T09:55:37;23.80;50.10
21734;DHT22;11029;47.820;10.534;2023-06-19T09:58:05;23.80;51.00
21734;DHT22;11029;47.820;10.534;2023-06-19T10:00:33;23.90;50.80
21734;DHT22;11029;47.820;10.534;2023-06-19T10:03:00;24.00;50.40
21734;DHT22;11029;47.820;10.534;2023-06-19T10:05:30;24.10;49.90
21734;DHT22;11029;47.820;10.534;2023-06-19T10:07:57;24.30;49.70
21734;DHT22;11029;47.820;10.534;2023-06-19T10:10:28;24.40;47.80
21734;DHT22;11029;47.820;10.534;2023-06-19T10:12:59;24.50;46.50
21734;DHT22;11029;47.820;10.534;2023-06-19T10:15:27;24.60;44.60
21734;DHT22;11029;47.820;10.534;2023-06-19T10:18:00;24.80;44.60
21734;DHT22;11029;47.820;10.534;2023-06-19T10:20:30;24.80;44.10
21734;DHT22;11029;47.820;10.534;2023-06-19T10:23:03;25.00;44.60
21734;DHT22;11029;47.820;10.534;2023-06-19T10:25:36;25.10;44.30
21734;DHT22;11029;47.820;10.534;2023-06-19T10:28:15;25.20;42.50
21734;DHT22;11029;47.820;10.534;2023-06-19T10:30:42;25.00;43.70
21734;DHT22;11029;47.820;10.534;2023-06-19T10:33:09;24.80;45.00
21734;DHT22;11029;47.820;10.534;2023-06-19T10:35:39;24.80;45.40
21734;DHT22;11029;47.820;10.534;2023-06-19T10:38:07;24.90;46.40
21734;DHT22;11029;47.820;10.534;2023-06-19T10:40:36;25.10;43.80
21734;DHT22;11029;47.820;10.534;2023-06-19T10:43:04;25.20;43.20
21734;DHT22;11029;47.820;10.534;2023-06-19T10:45:31;25.20;44.70
21734;DHT22;11029;47.820;10.534;2023-06-19T10:48:01;25.30;44.20
21734;DHT22;11029;47.820;10.534;2023-06-19T10:50:30;25.40;44.20
21734;DHT22;11029;47.820;10.534;2023-06-19T10:53:00;25.40;44.10
21734;DHT22;11029;47.820;10.534;2023-06-19T10:55:26;25.30;44.20
21734;DHT22;11029;47.820;10.534;2023-06-19T10:57:53;25.50;45.00
21734;DHT22;11029;47.820;10.534;2023-06-19T11:00:28;25.40;42.20
21734;DHT22;11029;47.820;10.534;2023-06-19T11:02:56;25.50;44.80
21734;DHT22;11029;47.820;10.534;2023-06-19T11:05:26;25.40;42.10
21734;DHT22;11029;47.820;10.534;2023-06-19T11:07:58;25.30;41.80
21734;DHT22;11029;47.820;10.534;2023-06-19T11:10:26;25.50;42.60
21734;DHT22;11029;47.820;10.534;2023-06-19T11:12:57;25.60;42.20
21734;DHT22;11029;47.820;10.534;2023-06-19T11:15:32;25.50;41.10
21734;DHT22;11029;47.820;10.534;2023-06-19T11:18:00;25.50;42.20
21734;DHT22;11029;47.820;10.534;2023-06-19T11:20:28;25.50;41.70
21734;DHT22;11029;47.820;10.534;2023-06-19T11:22:57;25.80;41.20
21734;DHT22;11029;47.820;10.534;2023-06-19T11:25:38;26.00;41.80
21734;DHT22;11029;47.820;10.534;2023-06-19T11:28:14;26.40;42.50
21734;DHT22;11029;47.820;10.534;2023-06-19T11:30:41;26.50;41.10
21734;DHT22;11029;47.820;10.534;2023-06-19T11:33:20;26.30;41.50
21734;DHT22;11029;47.820;10.534;2023-06-19T11:35:53;26.20;40.90
21734;DHT22;11029;47.820;10.534;2023-06-19T11:38:24;26.10;40.30
21734;DHT22;11029;47.820;10.534;2023-06-19T11:40:52;26.10;40.50
21734;DHT22;11029;47.820;10.534;2023-06-19T11:43:29;26.20;40.80
21734;DHT22;11029;47.820;10.534;2023-06-19T11:46:03;26.10;40.00
21734;DHT22;11029;47.820;10.534;2023-06-19T11:48:31;26.30;42.50
21734;DHT22;11029;47.820;10.534;2023-06-19T11:50:59;26.70;40.50
21734;DHT22;11029;47.820;10.534;2023-06-19T11:53:26;26.70;41.50
21734;DHT22;11029;47.820;10.534;2023-06-19T11:55:52;27.00;39.90
21734;DHT22;11029;47.820;10.534;2023-06-19T11:58:19;27.10;40.00
21734;DHT22;11029;47.820;10.534;2023-06-19T12:00:48;26.90;40.40
21734;DHT22;11029;47.820;10.534;2023-06-19T12:03:15;26.60;41.20
21734;DHT22;11029;47.820;10.534;2023-06-19T12:05:43;26.70;41.20
21734;DHT22;11029;47.820;10.534;2023-06-19T12:08:10;26.80;41.90
21734;DHT22;11029;47.820;10.534;2023-06-19T12:10:37;26.80;40.60
21734;DHT22;11029;47.820;10.534;2023-06-19T12:13:04;26.90;40.60
21734;DHT22;11029;47.820;10.534;2023-06-19T12:15:30;26.70;41.00
21734;DHT22;11029;47.820;10.534;2023-06-19T12:17:57;26.90;40.40
21734;DHT22;11029;47.820;10.534;2023-06-19T12:20:25;27.20;40.00
21734;DHT22;11029;47.820;10.534;2023-06-19T12:22:53;27.40;40.20
21734;DHT22;11029;47.820;10.534;2023-06-19T12:25:19;27.60;39.20
21734;DHT22;11029;47.820;10.534;2023-06-19T12:27:46;27.40;39.60
21734;DHT22;11029;47.820;10.534;2023-06-19T12:30:14;27.50;39.80
21734;DHT22;11029;47.820;10.534;2023-06-19T12:32:40;27.80;39.60
21734;DHT22;11029;47.820;10.534;2023-06-19T12:35:08;27.80;38.70
21734;DHT22;11029;47.820;10.534;2023-06-19T12:37:34;27.80;38.60
21734;DHT22;11029;47.820;10.534;2023-06-19T12:40:01;28.10;39.30
21734;DHT22;11029;47.820;10.534;2023-06-19T12:42:34;28.30;38.50
21734;DHT22;11029;47.820;10.534;2023-06-19T12:45:02;27.90;38.70
21734;DHT22;11029;47.820;10.534;2023-06-19T12:47:30;27.70;39.10
21734;DHT22;11029;47.820;10.534;2023-06-19T12:49:56;27.80;38.80
21734;DHT22;11029;47.820;10.534;2023-06-19T12:52:23;28.10;38.20
21734;DHT22;11029;47.820;10.534;2023-06-19T12:54:50;28.50;37.30
21734;DHT22;11029;47.820;10.534;2023-06-19T12:57:17;28.80;37.80
21734;DHT22;11029;47.820;10.534;2023-06-19T12:59:44;28.80;37.50
21734;DHT22;11029;47.820;10.534;2023-06-19T13:02:11;28.80;37.70
21734;DHT22;11029;47.820;10.534;2023-06-19T13:04:41;29.00;37.00
21734;DHT22;11029;47.820;10.534;2023-06-19T13:07:08;28.80;37.40
21734;DHT22;11029;47.820;10.534;2023-06-19T13:09:34;28.90;37.60
21734;DHT22;11029;47.820;10.534;2023-06-19T13:12:02;29.10;37.60
21734;DHT22;11029;47.820;10.534;2023-06-19T13:14:29;29.00;37.50
21734;DHT22;11029;47.820;10.534;2023-06-19T13:16:58;29.20;37.00
21734;DHT22;11029;47.820;10.534;2023-06-19T13:19:26;29.00;37.30
21734;DHT22;11029;47.820;10.534;2023-06-19T13:21:53;28.80;36.90
21734;DHT22;11029;47.820;10.534;2023-06-19T13:24:20;28.40;37.60
21734;DHT22;11029;47.820;10.534;2023-06-19T13:26:47;28.50;37.50
21734;DHT22;11029;47.820;10.534;2023-06-19T13:29:14;28.60;37.50
21734;DHT22;11029;47.820;10.534;2023-06-19T13:31:41;28.80;37.60
21734;DHT22;11029;47.820;10.534;2023-06-19T13:34:08;28.70;38.10
21734;DHT22;11029;47.820;10.534;2023-06-19T13:36:34;28.50;38.00
21734;DHT22;11029;47.820;10.534;2023-06-19T13:39:01;28.50;38.00
21734;DHT22;11029;47.820;10.534;2023-06-19T13:41:29;28.50;37.80
21734;DHT22;11029;47.820;10.534;2023-06-19T13:43:59;28.80;37.50
21734;DHT22;11029;47.820;10.534;2023-06-19T13:46:26;29.10;37.40
21734;DHT22;11029;47.820;10.534;2023-06-19T13:48:53;29.40;36.50
21734;DHT22;11029;47.820;10.534;2023-06-19T13:51:21;29.80;36.90
21734;DHT22;11029;47.820;10.534;2023-06-19T13:53:49;29.50;36.00
21734;DHT22;11029;47.820;10.534;2023-06-19T13:56:17;29.30;36.30
21734;DHT22;11029;47.820;10.534;2023-06-19T13:58:43;29.50;36.70
21734;DHT22;11029;47.820;10.534;2023-06-19T14:01:10;29.60;35.80
21734;DHT22;11029;47.820;10.534;2023-06-19T14:03:38;29.50;36.10
21734;DHT22;11029;47.820;10.534;2023-06-19T14:06:07;29.70;35.80
21734;DHT22;11029;47.820;10.534;2023-06-19T14:08:34;30.40;35.80
21734;DHT22;11029;47.820;10.534;2023-06-19T14:11:01;30.70;35.70
21734;DHT22;11029;47.820;10.534;2023-06-19T14:13:28;30.20;36.00
21734;DHT22;11029;47.820;10.534;2023-06-19T14:15:55;30.20;34.90
21734;DHT22;11029;47.820;10.534;2023-06-19T14:18:28;30.40;35.10
21734;DHT22;11029;47.820;10.534;2023-06-19T14:20:55;30.60;34.80
21734;DHT22;11029;47.820;10.534;2023-06-19T14:23:22;30.90;35.70
21734;DHT22;11029;47.820;10.534;2023-06-19T14:25:48;31.40;34.90
21734;DHT22;11029;47.820;10.534;2023-06-19T14:28:15;31.90;33.90
21734;DHT22;11029;47.820;10.534;2023-06-19T14:30:42;32.20;33.40
21734;DHT22;11029;47.820;10.534;2023-06-19T14:33:09;32.30;33.20
21734;DHT22;11029;47.820;10.534;2023-06-19T14:35:42;32.40;32.40
21734;DHT22;11029;47.820;10.534;2023-06-19T14:38:15;32.70;32.60
21734;DHT22;11029;47.820;10.534;2023-06-19T14:40:43;32.80;32.90
21734;DHT22;11029;47.820;10.534;2023-06-19T14:43:09;32.80;33.30
21734;DHT22;11029;47.820;10.534;2023-06-19T14:45:36;32.70;34.00
21734;DHT22;11029;47.820;10.534;2023-06-19T14:48:04;32.50;32.70
21734;DHT22;11029;47.820;10.534;2023-06-19T14:50:31;32.60;33.80
21734;DHT22;11029;47.820;10.534;2023-06-19T14:53:00;32.70;33.30
21734;DHT22;11029;47.820;10.534;2023-06-19T14:55:26;32.60;33.00
21734;DHT22;11029;47.820;10.534;2023-06-19T14:57:53;32.60;32.60
21734;DHT22;11029;47.820;10.534;2023-06-19T15:00:20;32.10;33.40
21734;DHT22;11029;47.820;10.534;2023-06-19T15:02:47;31.80;33.60
21734;DHT22;11029;47.820;10.534;2023-06-19T15:05:14;32.00;33.20
21734;DHT22;11029;47.820;10.534;2023-06-19T15:07:41;32.20;33.30
21734;DHT22;11029;47.820;10.534;2023-06-19T15:10:08;32.50;32.80
21734;DHT22;11029;47.820;10.534;2023-06-19T15:12:35;33.00;32.80
21734;DHT22;11029;47.820;10.534;2023-06-19T15:15:01;33.30;32.40
21734;DHT22;11029;47.820;10.534;2023-06-19T15:17:28;33.30;32.00
21734;DHT22;11029;47.820;10.534;2023-06-19T15:19:55;33.20;32.50
21734;DHT22;11029;47.820;10.534;2023-06-19T15:22:22;33.40;32.10
21734;DHT22;11029;47.820;10.534;2023-06-19T15:24:49;33.60;31.30